sensor_id;sensor_type;location;lat;lon;timestamp;P1;durP1;ratioP1;P2;durP2;ratioP2
39078;SDS011;24829;49.208;12.080;2024-03-23T00:54:21;33.20;;;24.23;;
39078;SDS011;24829;49.208;12.080;2024-03-23T00:56:47;35.92;;;24.35;;
39078;SDS011;24829;49.208;12.080;2024-03-23T00:59:12;39.60;;;25.67;;
39078;SDS011;24829;49.208;12.080;2024-03-23T01:01:38;35.28;;;25.27;;
39078;SDS011;24829;49.208;12.080;2024-03-23T01:04:04;33.53;;;24.13;;
39078;SDS011;24829;49.208;12.080;2024-03-23T01:06:30;41.35;;;25.17;;
39078;SDS011;24829;49.208;12.080;2024-03-23T01:08:55;39.40;;;24.83;;
39078;SDS011;24829;49.208;12.080;2024-03-23T01:11:21;37.33;;;24.33;;
39078;SDS011;24829;49.208;12.080;2024-03-23T01:13:47;35.85;;;24.50;;
39078;SDS011;24829;49.208;12.080;2024-03-23T01:16:12;33.00;;;22.67;;
39078;SDS011;24829;49.208;12.080;2024-03-23T01:18:38;34.67;;;23.05;;
39078;SDS011;24829;49.208;12.080;2024-03-23T01:21:03;35.20;;;23.75;;
39078;SDS011;24829;49.208;12.080;2024-03-23T01:23:29;37.75;;;22.52;;
39078;SDS011;24829;49.208;12.080;2024-03-23T01:25:54;30.20;;;21.80;;
39078;SDS011;24829;49.208;12.080;2024-03-23T01:28:21;35.15;;;23.02;;
39078;SDS011;24829;49.208;12.080;2024-03-23T01:30:47;38.88;;;24.42;;
39078;SDS011;24829;49.208;12.080;2024-03-23T01:33:13;28.75;;;21.77;;
39078;SDS011;24829;49.208;12.080;2024-03-23T01:35:39;34.45;;;21.75;;
39078;SDS011;24829;49.208;12.080;2024-03-23T01:38:04;36.92;;;24.13;;
39078;SDS011;24829;49.208;12.080;2024-03-23T01:40:30;31.55;;;22.38;;
39078;SDS011;24829;49.208;12.080;2024-03-23T01:43:03;38.60;;;23.25;;
39078;SDS011;24829;49.208;12.080;2024-03-23T01:45:33;33.55;;;23.15;;
39078;SDS011;24829;49.208;12.080;2024-03-23T01:47:59;36.40;;;23.05;;
39078;SDS011;24829;49.208;12.080;2024-03-23T01:50:25;36.50;;;24.42;;
39078;SDS011;24829;49.208;12.080;2024-03-23T01:52:52;34.60;;;25.02;;
39078;SDS011;24829;49.208;12.080;2024-03-23T01:55:18;33.83;;;24.48;;
39078;SDS011;24829;49.208;12.080;2024-03-23T01:57:44;36.42;;;24.35;;
39078;SDS011;24829;49.208;12.080;2024-03-23T02:00:10;36.10;;;25.13;;
39078;SDS011;24829;49.208;12.080;2024-03-23T02:02:46;39.70;;;25.90;;
39078;SDS011;24829;49.208;12.080;2024-03-23T02:05:12;31.92;;;23.73;;
39078;SDS011;24829;49.208;12.080;2024-03-23T02:07:41;38.13;;;25.75;;
39078;SDS011;24829;49.208;12.080;2024-03-23T02:10:08;35.83;;;25.15;;
39078;SDS011;24829;49.208;12.080;2024-03-23T02:12:35;36.85;;;25.85;;
39078;SDS011;24829;49.208;12.080;2024-03-23T02:15:01;40.42;;;25.65;;
39078;SDS011;24829;49.208;12.080;2024-03-23T02:17:27;36.58;;;26.13;;
39078;SDS011;24829;49.208;12.080;2024-03-23T02:19:55;37.30;;;24.73;;
39078;SDS011;24829;49.208;12.080;2024-03-23T02:22:20;36.15;;;24.42;;
39078;SDS011;24829;49.208;12.080;2024-03-23T02:24:46;38.65;;;26.55;;
39078;SDS011;24829;49.208;12.080;2024-03-23T02:27:12;38.20;;;26.17;;
39078;SDS011;24829;49.208;12.080;2024-03-23T02:29:37;40.28;;;27.15;;
39078;SDS011;24829;49.208;12.080;2024-03-23T02:32:03;36.92;;;24.35;;
39078;SDS011;24829;49.208;12.080;2024-03-23T02:34:29;37.40;;;25.42;;
39078;SDS011;24829;49.208;12.080;2024-03-23T02:36:54;42.80;;;25.42;;
39078;SDS011;24829;49.208;12.080;2024-03-23T02:39:20;35.22;;;25.85;;
39078;SDS011;24829;49.208;12.080;2024-03-23T02:41:46;39.85;;;25.35;;
39078;SDS011;24829;49.208;12.080;2024-03-23T02:44:13;38.05;;;25.42;;
39078;SDS011;24829;49.208;12.080;2024-03-23T02:46:39;33.08;;;23.88;;
39078;SDS011;24829;49.208;12.080;2024-03-23T02:49:04;34.45;;;23.83;;
39078;SDS011;24829;49.208;12.080;2024-03-23T02:51:30;40.00;;;25.70;;
39078;SDS011;24829;49.208;12.080;2024-03-23T02:53:56;37.83;;;26.17;;
39078;SDS011;24829;49.208;12.080;2024-03-23T02:56:22;41.33;;;28.27;;
39078;SDS011;24829;49.208;12.080;2024-03-23T02:58:47;40.30;;;27.25;;
39078;SDS011;24829;49.208;12.080;2024-03-23T03:01:13;40.50;;;27.55;;
39078;SDS011;24829;49.208;12.080;2024-03-23T03:03:39;40.38;;;28.88;;
39078;SDS011;24829;49.208;12.080;2024-03-23T03:06:04;42.83;;;28.60;;
39078;SDS011;24829;49.208;12.080;2024-03-23T03:08:30;49.08;;;30.75;;
39078;SDS011;24829;49.208;12.080;2024-03-23T03:10:56;45.92;;;30.52;;
39078;SDS011;24829;49.208;12.080;2024-03-23T03:13:21;48.08;;;31.58;;
39078;SDS011;24829;49.208;12.080;2024-03-23T03:15:47;51.20;;;33.50;;
39078;SDS011;24829;49.208;12.080;2024-03-23T03:18:12;49.58;;;34.10;;
39078;SDS011;24829;49.208;12.080;2024-03-23T03:20:38;55.33;;;35.05;;
39078;SDS011;24829;49.208;12.080;2024-03-23T03:23:04;55.35;;;34.72;;
39078;SDS011;24829;49.208;12.080;2024-03-23T03:25:31;49.03;;;33.25;;
39078;SDS011;24829;49.208;12.080;2024-03-23T03:27:56;48.33;;;32.47;;
39078;SDS011;24829;49.208;12.080;2024-03-23T03:30:22;51.60;;;32.78;;
39078;SDS011;24829;49.208;12.080;2024-03-23T03:32:47;53.47;;;33.95;;
39078;SDS011;24829;49.208;12.080;2024-03-23T03:35:14;54.42;;;33.65;;
39078;SDS011;24829;49.208;12.080;2024-03-23T03:37:39;49.08;;;32.35;;
39078;SDS011;24829;49.208;12.080;2024-03-23T03:40:05;55.38;;;33.15;;
39078;SDS011;24829;49.208;12.080;2024-03-23T03:42:33;56.70;;;35.33;;
39078;SDS011;24829;49.208;12.080;2024-03-23T03:44:59;48.70;;;34.05;;
39078;SDS011;24829;49.208;12.080;2024-03-23T03:47:25;52.72;;;35.25;;
39078;SDS011;24829;49.208;12.080;2024-03-23T03:49:50;51.90;;;33.13;;
39078;SDS011;24829;49.208;12.080;2024-03-23T03:52:16;51.50;;;32.55;;
39078;SDS011;24829;49.208;12.080;2024-03-23T03:54:41;47.15;;;31.08;;
39078;SDS011;24829;49.208;12.080;2024-03-23T03:57:07;48.30;;;31.35;;
39078;SDS011;24829;49.208;12.080;2024-03-23T03:59:33;47.88;;;30.58;;
39078;SDS011;24829;49.208;12.080;2024-03-23T04:01:58;46.13;;;30.65;;
39078;SDS011;24829;49.208;12.080;2024-03-23T04:04:24;42.50;;;28.33;;
39078;SDS011;24829;49.208;12.080;2024-03-23T04:06:49;40.28;;;27.15;;
39078;SDS011;24829;49.208;12.080;2024-03-23T04:09:15;40.97;;;26.27;;
39078;SDS011;24829;49.208;12.080;2024-03-23T04:11:40;38.90;;;26.30;;
39078;SDS011;24829;49.208;12.080;2024-03-23T04:14:06;34.47;;;25.35;;
39078;SDS011;24829;49.208;12.080;2024-03-23T04:16:35;35.75;;;24.27;;
39078;SDS011;24829;49.208;12.080;2024-03-23T04:19:01;36.53;;;24.17;;
39078;SDS011;24829;49.208;12.080;2024-03-23T04:21:26;37.38;;;22.83;;
39078;SDS011;24829;49.208;12.080;2024-03-23T04:23:52;31.55;;;22.23;;
39078;SDS011;24829;49.208;12.080;2024-03-23T04:26:18;32.58;;;21.83;;
39078;SDS011;24829;49.208;12.080;2024-03-23T04:28:43;31.70;;;21.52;;
39078;SDS011;24829;49.208;12.080;2024-03-23T04:31:09;29.48;;;21.05;;
39078;SDS011;24829;49.208;12.080;2024-03-23T04:33:35;36.17;;;22.70;;
39078;SDS011;24829;49.208;12.080;2024-03-23T04:36:01;32.08;;;20.65;;
39078;SDS011;24829;49.208;12.080;2024-03-23T04:38:27;28.88;;;20.73;;
39078;SDS011;24829;49.208;12.080;2024-03-23T04:40:54;33.33;;;21.00;;
39078;SDS011;24829;49.208;12.080;2024-03-23T04:43:23;31.77;;;20.05;;
39078;SDS011;24829;49.208;12.080;2024-03-23T04:45:48;28.02;;;20.67;;
39078;SDS011;24829;49.208;12.080;2024-03-23T04:48:14;31.27;;;20.45;;
39078;SDS011;24829;49.208;12.080;2024-03-23T04:50:40;30.75;;;18.63;;
39078;SDS011;24829;49.208;12.080;2024-03-23T04:53:06;31.55;;;19.77;;
39078;SDS011;24829;49.208;12.080;2024-03-23T04:55:32;28.48;;;18.05;;
39078;SDS011;24829;49.208;12.080;2024-03-23T04:57:57;26.90;;;18.35;;
39078;SDS011;24829;49.208;12.080;2024-03-23T05:00:23;27.42;;;18.88;;
39078;SDS011;24829;49.208;12.080;2024-03-23T05:02:50;28.10;;;18.08;;
39078;SDS011;24829;49.208;12.080;2024-03-23T05:05:15;24.80;;;17.50;;
39078;SDS011;24829;49.208;12.080;2024-03-23T05:07:41;22.70;;;17.13;;
39078;SDS011;24829;49.208;12.080;2024-03-23T05:10:08;20.77;;;16.15;;
39078;SDS011;24829;49.208;12.080;2024-03-23T05:12:38;25.67;;;17.87;;
39078;SDS011;24829;49.208;12.080;2024-03-23T05:15:04;26.80;;;17.17;;
39078;SDS011;24829;49.208;12.080;2024-03-23T05:17:31;28.70;;;17.83;;
39078;SDS011;24829;49.208;12.080;2024-03-23T05:19:57;22.52;;;15.73;;
39078;SDS011;24829;49.208;12.080;2024-03-23T05:22:23;23.00;;;17.17;;
39078;SDS011;24829;49.208;12.080;2024-03-23T05:24:48;26.30;;;16.42;;
39078;SDS011;24829;49.208;12.080;2024-03-23T05:27:14;26.52;;;16.67;;
39078;SDS011;24829;49.208;12.080;2024-03-23T05:29:40;24.98;;;16.63;;
39078;SDS011;24829;49.208;12.080;2024-03-23T05:32:05;21.58;;;15.85;;
39078;SDS011;24829;49.208;12.080;2024-03-23T05:34:31;28.38;;;16.40;;
39078;SDS011;24829;49.208;12.080;2024-03-23T05:36:57;20.52;;;14.95;;
39078;SDS011;24829;49.208;12.080;2024-03-23T05:39:23;23.65;;;16.15;;
39078;SDS011;24829;49.208;12.080;2024-03-23T05:41:49;19.13;;;14.57;;
39078;SDS011;24829;49.208;12.080;2024-03-23T05:44:14;22.05;;;14.55;;
39078;SDS011;24829;49.208;12.080;2024-03-23T05:46:40;20.75;;;13.90;;
39078;SDS011;24829;49.208;12.080;2024-03-23T05:49:06;18.35;;;13.77;;
39078;SDS011;24829;49.208;12.080;2024-03-23T05:51:33;21.83;;;14.27;;
39078;SDS011;24829;49.208;12.080;2024-03-23T05:53:59;17.65;;;13.07;;
39078;SDS011;24829;49.208;12.080;2024-03-23T05:56:24;16.88;;;13.93;;
39078;SDS011;24829;49.208;12.080;2024-03-23T05:58:52;17.25;;;13.27;;
39078;SDS011;24829;49.208;12.080;2024-03-23T06:01:18;17.80;;;12.40;;
39078;SDS011;24829;49.208;12.080;2024-03-23T06:03:44;17.55;;;11.18;;
39078;SDS011;24829;49.208;12.080;2024-03-23T06:06:10;15.35;;;10.80;;
39078;SDS011;24829;49.208;12.080;2024-03-23T06:08:37;12.95;;;9.90;;
39078;SDS011;24829;49.208;12.080;2024-03-23T06:11:04;13.98;;;10.00;;
39078;SDS011;24829;49.208;12.080;2024-03-23T06:13:31;13.15;;;9.50;;
39078;SDS011;24829;49.208;12.080;2024-03-23T06:15:57;13.02;;;9.75;;
39078;SDS011;24829;49.208;12.080;2024-03-23T06:18:23;15.07;;;10.02;;
39078;SDS011;24829;49.208;12.080;2024-03-23T06:20:49;11.57;;;8.85;;
39078;SDS011;24829;49.208;12.080;2024-03-23T06:23:15;10.45;;;8.68;;
39078;SDS011;24829;49.208;12.080;2024-03-23T06:25:42;11.90;;;9.35;;
39078;SDS011;24829;49.208;12.080;2024-03-23T06:28:08;10.73;;;7.70;;
39078;SDS011;24829;49.208;12.080;2024-03-23T06:30:33;10.50;;;8.80;;
39078;SDS011;24829;49.208;12.080;2024-03-23T06:32:59;11.23;;;8.65;;
39078;SDS011;24829;49.208;12.080;2024-03-23T06:35:25;12.00;;;8.18;;
39078;SDS011;24829;49.208;12.080;2024-03-23T06:37:50;11.13;;;7.53;;
39078;SDS011;24829;49.208;12.080;2024-03-23T06:40:16;9.50;;;8.13;;
39078;SDS011;24829;49.208;12.080;2024-03-23T06:42:41;11.38;;;7.80;;
39078;SDS011;24829;49.208;12.080;2024-03-23T06:45:07;10.15;;;6.80;;
39078;SDS011;24829;49.208;12.080;2024-03-23T06:47:33;9.95;;;6.75;;
39078;SDS011;24829;49.208;12.080;2024-03-23T06:49:59;10.52;;;6.78;;
39078;SDS011;24829;49.208;12.080;2024-03-23T06:52:28;8.38;;;5.70;;
39078;SDS011;24829;49.208;12.080;2024-03-23T06:54:54;7.43;;;5.35;;
39078;SDS011;24829;49.208;12.080;2024-03-23T06:57:19;7.75;;;5.15;;
39078;SDS011;24829;49.208;12.080;2024-03-23T06:59:45;7.72;;;4.90;;
39078;SDS011;24829;49.208;12.080;2024-03-23T07:02:11;6.80;;;5.15;;
39078;SDS011;24829;49.208;12.080;2024-03-23T07:04:36;5.95;;;4.75;;
39078;SDS011;24829;49.208;12.080;2024-03-23T07:07:04;7.65;;;5.05;;
39078;SDS011;24829;49.208;12.080;2024-03-23T07:09:30;6.68;;;4.35;;
39078;SDS011;24829;49.208;12.080;2024-03-23T07:11:56;6.68;;;5.35;;
39078;SDS011;24829;49.208;12.080;2024-03-23T07:14:22;8.98;;;5.13;;
39078;SDS011;24829;49.208;12.080;2024-03-23T07:16:49;6.53;;;5.57;;
39078;SDS011;24829;49.208;12.080;2024-03-23T07:19:15;6.63;;;5.20;;
39078;SDS011;24829;49.208;12.080;2024-03-23T07:21:45;7.05;;;4.82;;
39078;SDS011;24829;49.208;12.080;2024-03-23T07:24:11;9.27;;;5.40;;
39078;SDS011;24829;49.208;12.080;2024-03-23T07:26:37;8.05;;;5.35;;
39078;SDS011;24829;49.208;12.080;2024-03-23T07:29:03;35.88;;;11.52;;
39078;SDS011;24829;49.208;12.080;2024-03-23T07:31:29;21.02;;;7.78;;
39078;SDS011;24829;49.208;12.080;2024-03-23T07:33:54;8.48;;;5.10;;
39078;SDS011;24829;49.208;12.080;2024-03-23T07:36:20;7.38;;;4.40;;
39078;SDS011;24829;49.208;12.080;2024-03-23T07:38:46;5.40;;;4.03;;
39078;SDS011;24829;49.208;12.080;2024-03-23T07:41:14;6.60;;;4.47;;
39078;SDS011;24829;49.208;12.080;2024-03-23T07:43:44;8.20;;;5.00;;
39078;SDS011;24829;49.208;12.080;2024-03-23T07:46:11;9.15;;;5.85;;
39078;SDS011;24829;49.208;12.080;2024-03-23T07:48:37;10.70;;;5.85;;
39078;SDS011;24829;49.208;12.080;2024-03-23T07:51:04;9.48;;;5.75;;
39078;SDS011;24829;49.208;12.080;2024-03-23T07:53:32;8.45;;;6.45;;
39078;SDS011;24829;49.208;12.080;2024-03-23T07:56:00;8.73;;;6.35;;
39078;SDS011;24829;49.208;12.080;2024-03-23T07:58:27;11.15;;;6.45;;
39078;SDS011;24829;49.208;12.080;2024-03-23T08:00:54;10.48;;;5.28;;
39078;SDS011;24829;49.208;12.080;2024-03-23T08:03:20;7.30;;;5.50;;
39078;SDS011;24829;49.208;12.080;2024-03-23T08:05:45;9.35;;;6.05;;
39078;SDS011;24829;49.208;12.080;2024-03-23T08:08:11;16.58;;;6.60;;
39078;SDS011;24829;49.208;12.080;2024-03-23T08:10:46;14.13;;;9.10;;
39078;SDS011;24829;49.208;12.080;2024-03-23T08:13:15;9.35;;;6.82;;
39078;SDS011;24829;49.208;12.080;2024-03-23T08:15:41;10.40;;;6.53;;
39078;SDS011;24829;49.208;12.080;2024-03-23T08:18:06;8.73;;;5.63;;
39078;SDS011;24829;49.208;12.080;2024-03-23T08:20:32;6.90;;;4.85;;
39078;SDS011;24829;49.208;12.080;2024-03-23T08:22:58;7.28;;;6.00;;
39078;SDS011;24829;49.208;12.080;2024-03-23T08:25:23;9.10;;;6.18;;
39078;SDS011;24829;49.208;12.080;2024-03-23T08:27:49;7.45;;;5.43;;
39078;SDS011;24829;49.208;12.080;2024-03-23T08:30:14;10.70;;;6.07;;
39078;SDS011;24829;49.208;12.080;2024-03-23T08:32:41;7.35;;;5.68;;
39078;SDS011;24829;49.208;12.080;2024-03-23T08:35:07;8.70;;;5.88;;
39078;SDS011;24829;49.208;12.080;2024-03-23T08:37:33;8.73;;;6.03;;
39078;SDS011;24829;49.208;12.080;2024-03-23T08:39:59;9.25;;;5.47;;
39078;SDS011;24829;49.208;12.080;2024-03-23T08:42:24;9.77;;;6.10;;
39078;SDS011;24829;49.208;12.080;2024-03-23T08:44:50;11.13;;;6.03;;
39078;SDS011;24829;49.208;12.080;2024-03-23T08:47:16;9.13;;;4.97;;
39078;SDS011;24829;49.208;12.080;2024-03-23T08:49:41;10.63;;;6.45;;
39078;SDS011;24829;49.208;12.080;2024-03-23T08:52:07;8.55;;;5.25;;
39078;SDS011;24829;49.208;12.080;2024-03-23T08:54:33;9.65;;;6.53;;
39078;SDS011;24829;49.208;12.080;2024-03-23T08:56:59;8.38;;;5.22;;
39078;SDS011;24829;49.208;12.080;2024-03-23T08:59:25;9.98;;;5.32;;
39078;SDS011;24829;49.208;12.080;2024-03-23T09:01:50;7.78;;;5.72;;
39078;SDS011;24829;49.208;12.080;2024-03-23T09:04:16;8.98;;;6.15;;
39078;SDS011;24829;49.208;12.080;2024-03-23T09:06:42;11.43;;;5.57;;
39078;SDS011;24829;49.208;12.080;2024-03-23T09:09:08;10.70;;;5.95;;
39078;SDS011;24829;49.208;12.080;2024-03-23T09:11:33;10.82;;;5.20;;
39078;SDS011;24829;49.208;12.080;2024-03-23T09:13:59;7.90;;;5.32;;
39078;SDS011;24829;49.208;12.080;2024-03-23T09:16:25;6.95;;;4.78;;
39078;SDS011;24829;49.208;12.080;2024-03-23T09:18:51;7.90;;;4.95;;
39078;SDS011;24829;49.208;12.080;2024-03-23T09:21:17;7.30;;;5.00;;
39078;SDS011;24829;49.208;12.080;2024-03-23T09:23:43;6.13;;;4.55;;
39078;SDS011;24829;49.208;12.080;2024-03-23T09:26:09;6.03;;;3.70;;
39078;SDS011;24829;49.208;12.080;2024-03-23T09:28:35;8.05;;;5.38;;
39078;SDS011;24829;49.208;12.080;2024-03-23T09:33:30;7.03;;;4.57;;
39078;SDS011;24829;49.208;12.080;2024-03-23T09:35:55;7.38;;;3.75;;
39078;SDS011;24829;49.208;12.080;2024-03-23T09:38:21;4.65;;;2.88;;
39078;SDS011;24829;49.208;12.080;2024-03-23T09:40:48;5.28;;;3.20;;
39078;SDS011;24829;49.208;12.080;2024-03-23T09:43:18;6.22;;;4.13;;
39078;SDS011;24829;49.208;12.080;2024-03-23T09:45:45;5.82;;;3.70;;
39078;SDS011;24829;49.208;12.080;2024-03-23T09:48:11;4.60;;;2.50;;
39078;SDS011;24829;49.208;12.080;2024-03-23T09:50:38;4.95;;;2.45;;
39078;SDS011;24829;49.208;12.080;2024-03-23T09:53:06;5.28;;;2.90;;
39078;SDS011;24829;49.208;12.080;2024-03-23T09:55:32;4.07;;;2.17;;
39078;SDS011;24829;49.208;12.080;2024-03-23T09:58:00;3.78;;;1.90;;
39078;SDS011;24829;49.208;12.080;2024-03-23T10:00:26;3.22;;;1.80;;
39078;SDS011;24829;49.208;12.080;2024-03-23T10:02:51;4.75;;;2.25;;
39078;SDS011;24829;49.208;12.080;2024-03-23T10:05:22;6.68;;;2.65;;
39078;SDS011;24829;49.208;12.080;2024-03-23T10:07:49;4.93;;;2.72;;
39078;SDS011;24829;49.208;12.080;2024-03-23T10:10:15;2.53;;;1.45;;
39078;SDS011;24829;49.208;12.080;2024-03-23T10:12:45;2.90;;;1.10;;
39078;SDS011;24829;49.208;12.080;2024-03-23T10:15:19;2.42;;;1.10;;
39078;SDS011;24829;49.208;12.080;2024-03-23T10:17:46;1.58;;;0.93;;
39078;SDS011;24829;49.208;12.080;2024-03-23T10:20:11;1.00;;;0.70;;
39078;SDS011;24829;49.208;12.080;2024-03-23T10:22:37;0.95;;;0.70;;
39078;SDS011;24829;49.208;12.080;2024-03-23T10:25:07;0.60;;;0.40;;
39078;SDS011;24829;49.208;12.080;2024-03-23T10:27:33;0.90;;;0.60;;
39078;SDS011;24829;49.208;12.080;2024-03-23T10:30:07;0.80;;;0.50;;
39078;SDS011;24829;49.208;12.080;2024-03-23T10:32:34;2.42;;;0.40;;
39078;SDS011;24829;49.208;12.080;2024-03-23T10:35:19;2.70;;;0.88;;
39078;SDS011;24829;49.208;12.080;2024-03-23T10:37:47;0.73;;;0.55;;
39078;SDS011;24829;49.208;12.080;2024-03-23T10:40:14;1.15;;;0.57;;
39078;SDS011;24829;49.208;12.080;2024-03-23T10:42:40;0.82;;;0.63;;
39078;SDS011;24829;49.208;12.080;2024-03-23T10:45:06;1.13;;;0.60;;
39078;SDS011;24829;49.208;12.080;2024-03-23T10:47:36;1.02;;;0.60;;
39078;SDS011;24829;49.208;12.080;2024-03-23T10:50:03;1.17;;;0.60;;
39078;SDS011;24829;49.208;12.080;2024-03-23T10:52:30;1.02;;;0.63;;
39078;SDS011;24829;49.208;12.080;2024-03-23T10:54:57;0.95;;;0.57;;
39078;SDS011;24829;49.208;12.080;2024-03-23T10:57:37;0.70;;;0.50;;
39078;SDS011;24829;49.208;12.080;2024-03-23T11:00:08;0.50;;;0.50;;
39078;SDS011;24829;49.208;12.080;2024-03-23T11:02:35;0.88;;;0.60;;
39078;SDS011;24829;49.208;12.080;2024-03-23T11:05:01;1.95;;;0.70;;
39078;SDS011;24829;49.208;12.080;2024-03-23T11:07:49;0.47;;;0.38;;
39078;SDS011;24829;49.208;12.080;2024-03-23T11:10:33;0.55;;;0.30;;
39078;SDS011;24829;49.208;12.080;2024-03-23T11:15:48;5.07;;;1.00;;
39078;SDS011;24829;49.208;12.080;2024-03-23T11:18:20;2.50;;;0.63;;
39078;SDS011;24829;49.208;12.080;2024-03-23T11:20:46;0.75;;;0.47;;
39078;SDS011;24829;49.208;12.080;2024-03-23T11:23:27;1.45;;;0.50;;
39078;SDS011;24829;49.208;12.080;2024-03-23T11:25:53;2.50;;;1.20;;
39078;SDS011;24829;49.208;12.080;2024-03-23T11:28:19;1.92;;;0.60;;
39078;SDS011;24829;49.208;12.080;2024-03-23T11:30:45;0.93;;;0.52;;
39078;SDS011;24829;49.208;12.080;2024-03-23T11:33:11;1.38;;;0.40;;
39078;SDS011;24829;49.208;12.080;2024-03-23T11:35:38;0.80;;;0.65;;
39078;SDS011;24829;49.208;12.080;2024-03-23T11:38:16;0.73;;;0.43;;
39078;SDS011;24829;49.208;12.080;2024-03-23T11:40:47;0.40;;;0.25;;
39078;SDS011;24829;49.208;12.080;2024-03-23T11:43:14;2.08;;;0.90;;
39078;SDS011;24829;49.208;12.080;2024-03-23T11:45:45;0.82;;;0.40;;
39078;SDS011;24829;49.208;12.080;2024-03-23T11:48:15;1.35;;;0.55;;
39078;SDS011;24829;49.208;12.080;2024-03-23T11:50:45;1.20;;;0.50;;
39078;SDS011;24829;49.208;12.080;2024-03-23T11:53:16;0.45;;;0.30;;
39078;SDS011;24829;49.208;12.080;2024-03-23T11:55:46;1.40;;;0.65;;
39078;SDS011;24829;49.208;12.080;2024-03-23T11:58:22;2.03;;;0.80;;
39078;SDS011;24829;49.208;12.080;2024-03-23T12:00:50;1.63;;;0.80;;
39078;SDS011;24829;49.208;12.080;2024-03-23T12:03:17;3.55;;;1.60;;
39078;SDS011;24829;49.208;12.080;2024-03-23T12:05:50;2.25;;;0.60;;
39078;SDS011;24829;49.208;12.080;2024-03-23T12:10:49;2.33;;;0.70;;
39078;SDS011;24829;49.208;12.080;2024-03-23T12:13:21;1.58;;;0.75;;
39078;SDS011;24829;49.208;12.080;2024-03-23T12:15:49;1.63;;;0.70;;
39078;SDS011;24829;49.208;12.080;2024-03-23T12:18:15;2.47;;;0.70;;
39078;SDS011;24829;49.208;12.080;2024-03-23T12:20:41;1.10;;;0.68;;
39078;SDS011;24829;49.208;12.080;2024-03-23T12:23:08;2.47;;;1.40;;
39078;SDS011;24829;49.208;12.080;2024-03-23T12:25:35;3.22;;;1.20;;
39078;SDS011;24829;49.208;12.080;2024-03-23T12:28:01;3.20;;;1.10;;
39078;SDS011;24829;49.208;12.080;2024-03-23T12:30:27;4.18;;;1.92;;
39078;SDS011;24829;49.208;12.080;2024-03-23T12:32:53;1.95;;;0.90;;
39078;SDS011;24829;49.208;12.080;2024-03-23T12:35:19;2.45;;;0.70;;
39078;SDS011;24829;49.208;12.080;2024-03-23T12:37:44;2.13;;;0.77;;
39078;SDS011;24829;49.208;12.080;2024-03-23T12:40:10;3.22;;;1.00;;
39078;SDS011;24829;49.208;12.080;2024-03-23T12:42:36;3.20;;;1.00;;
39078;SDS011;24829;49.208;12.080;2024-03-23T12:45:01;1.95;;;0.90;;
39078;SDS011;24829;49.208;12.080;2024-03-23T12:47:28;3.05;;;1.02;;
39078;SDS011;24829;49.208;12.080;2024-03-23T12:49:55;2.20;;;0.90;;
39078;SDS011;24829;49.208;12.080;2024-03-23T12:52:21;4.97;;;1.35;;
39078;SDS011;24829;49.208;12.080;2024-03-23T12:54:49;2.60;;;1.02;;
39078;SDS011;24829;49.208;12.080;2024-03-23T12:57:15;3.92;;;1.30;;
39078;SDS011;24829;49.208;12.080;2024-03-23T12:59:40;4.22;;;1.15;;
39078;SDS011;24829;49.208;12.080;2024-03-23T13:02:06;3.40;;;1.20;;
39078;SDS011;24829;49.208;12.080;2024-03-23T13:04:32;3.80;;;1.30;;
39078;SDS011;24829;49.208;12.080;2024-03-23T13:06:58;5.20;;;2.38;;
39078;SDS011;24829;49.208;12.080;2024-03-23T13:09:23;2.78;;;1.20;;
39078;SDS011;24829;49.208;12.080;2024-03-23T13:11:49;2.60;;;1.10;;
39078;SDS011;24829;49.208;12.080;2024-03-23T13:14:14;2.70;;;1.02;;
39078;SDS011;24829;49.208;12.080;2024-03-23T13:16:41;6.45;;;1.67;;
39078;SDS011;24829;49.208;12.080;2024-03-23T13:19:07;6.80;;;2.97;;
39078;SDS011;24829;49.208;12.080;2024-03-23T13:21:33;4.72;;;1.80;;
39078;SDS011;24829;49.208;12.080;2024-03-23T13:23:58;5.50;;;2.05;;
39078;SDS011;24829;49.208;12.080;2024-03-23T13:26:24;3.55;;;1.50;;
39078;SDS011;24829;49.208;12.080;2024-03-23T13:28:50;6.55;;;1.58;;
39078;SDS011;24829;49.208;12.080;2024-03-23T13:31:15;4.43;;;1.38;;
39078;SDS011;24829;49.208;12.080;2024-03-23T13:33:41;2.53;;;1.35;;
39078;SDS011;24829;49.208;12.080;2024-03-23T13:36:09;6.55;;;1.67;;
39078;SDS011;24829;49.208;12.080;2024-03-23T13:38:34;6.10;;;1.25;;
39078;SDS011;24829;49.208;12.080;2024-03-23T13:41:00;5.75;;;1.27;;
39078;SDS011;24829;49.208;12.080;2024-03-23T13:43:26;4.18;;;1.35;;
39078;SDS011;24829;49.208;12.080;2024-03-23T13:45:53;5.18;;;1.05;;
39078;SDS011;24829;49.208;12.080;2024-03-23T13:48:24;5.63;;;1.40;;
39078;SDS011;24829;49.208;12.080;2024-03-23T13:50:58;2.72;;;1.20;;
39078;SDS011;24829;49.208;12.080;2024-03-23T13:53:24;4.07;;;1.52;;
39078;SDS011;24829;49.208;12.080;2024-03-23T13:55:50;3.25;;;1.35;;
39078;SDS011;24829;49.208;12.080;2024-03-23T13:58:15;2.60;;;1.10;;
39078;SDS011;24829;49.208;12.080;2024-03-23T14:00:41;4.22;;;1.10;;
39078;SDS011;24829;49.208;12.080;2024-03-23T14:03:11;5.90;;;1.17;;
39078;SDS011;24829;49.208;12.080;2024-03-23T14:05:37;3.28;;;1.10;;
39078;SDS011;24829;49.208;12.080;2024-03-23T14:08:04;4.78;;;1.38;;
39078;SDS011;24829;49.208;12.080;2024-03-23T14:10:33;5.78;;;1.20;;
39078;SDS011;24829;49.208;12.080;2024-03-23T14:13:00;6.20;;;1.15;;
39078;SDS011;24829;49.208;12.080;2024-03-23T14:15:26;4.22;;;1.75;;
39078;SDS011;24829;49.208;12.080;2024-03-23T14:17:52;4.03;;;1.33;;
39078;SDS011;24829;49.208;12.080;2024-03-23T14:20:19;5.97;;;1.40;;
39078;SDS011;24829;49.208;12.080;2024-03-23T14:22:45;4.80;;;1.35;;
39078;SDS011;24829;49.208;12.080;2024-03-23T14:25:11;4.32;;;1.38;;
39078;SDS011;24829;49.208;12.080;2024-03-23T14:27:37;4.90;;;1.30;;
39078;SDS011;24829;49.208;12.080;2024-03-23T14:30:05;3.78;;;1.30;;
39078;SDS011;24829;49.208;12.080;2024-03-23T14:32:31;3.85;;;1.25;;
39078;SDS011;24829;49.208;12.080;2024-03-23T14:35:02;3.58;;;1.73;;
39078;SDS011;24829;49.208;12.080;2024-03-23T14:37:28;5.57;;;1.90;;
39078;SDS011;24829;49.208;12.080;2024-03-23T14:39:57;3.10;;;1.45;;
39078;SDS011;24829;49.208;12.080;2024-03-23T14:42:23;8.25;;;2.13;;
39078;SDS011;24829;49.208;12.080;2024-03-23T14:44:49;2.90;;;1.60;;
39078;SDS011;24829;49.208;12.080;2024-03-23T14:47:16;7.15;;;1.67;;
39078;SDS011;24829;49.208;12.080;2024-03-23T14:49:45;4.95;;;1.73;;
39078;SDS011;24829;49.208;12.080;2024-03-23T14:52:15;6.50;;;1.90;;
39078;SDS011;24829;49.208;12.080;2024-03-23T14:54:45;6.45;;;2.08;;
39078;SDS011;24829;49.208;12.080;2024-03-23T14:57:11;3.70;;;1.40;;
39078;SDS011;24829;49.208;12.080;2024-03-23T14:59:37;4.28;;;1.33;;
39078;SDS011;24829;49.208;12.080;2024-03-23T15:02:03;5.85;;;1.48;;
39078;SDS011;24829;49.208;12.080;2024-03-23T15:04:31;5.65;;;1.48;;
39078;SDS011;24829;49.208;12.080;2024-03-23T15:06:57;4.38;;;1.55;;
39078;SDS011;24829;49.208;12.080;2024-03-23T15:09:23;5.20;;;1.92;;
39078;SDS011;24829;49.208;12.080;2024-03-23T15:11:48;7.05;;;2.42;;
39078;SDS011;24829;49.208;12.080;2024-03-23T15:14:14;6.53;;;2.10;;
39078;SDS011;24829;49.208;12.080;2024-03-23T15:16:39;5.38;;;1.85;;
39078;SDS011;24829;49.208;12.080;2024-03-23T15:19:07;5.07;;;1.65;;
39078;SDS011;24829;49.208;12.080;2024-03-23T15:21:33;8.60;;;3.50;;